Time;durP1;ratioP1;P1;durP2;ratioP2;P2;SDS_P1;SDS_P2;PMS_P1;PMS_P2;Temp;Humidity;BMP_temperature;BMP_pressure;BME280_temperature;BME280_humidity;BME280_pressure;Samples;Min_cycle;Max_cycle;Signal;HPM_P1;HPM_P2
2021/06/16 00:01:41;;;;;;;7.85;5.40;;;;;;;;;;5053572;28;20048;-71
2021/06/16 00:04:08;;;;;;;7.75;4.88;;;;;;;;;;5053669;28;20112;-70
2021/06/16 00:06:35;;;;;;;8.75;5.32;;;;;;;;;;5054894;28;20021;-71
2021/06/16 00:09:01;;;;;;;8.23;5.25;;;;;;;;;;5053556;28;20116;-71
2021/06/16 00:11:27;;;;;;;8.80;5.15;;;;;;;;;;5054694;28;20044;-71
2021/06/16 00:13:54;;;;;;;6.20;5.10;;;;;;;;;;5053197;28;20082;-71
2021/06/16 00:16:20;;;;;;;10.00;5.03;;;;;;;;;;5054706;28;20025;-71
2021/06/16 00:18:46;;;;;;;10.23;4.85;;;;;;;;;;5054646;28;20032;-71
2021/06/16 00:21:13;;;;;;;8.40;4.95;;;;;;;;;;5054542;28;20071;-71
2021/06/16 00:23:40;;;;;;;7.13;5.07;;;;;;;;;;5053237;28;20523;-71
2021/06/16 00:26:06;;;;;;;7.93;5.15;;;;;;;;;;5052964;28;20128;-71
2021/06/16 00:28:33;;;;;;;9.18;5.03;;;;;;;;;;5054408;28;20473;-71
2021/06/16 00:30:59;;;;;;;11.90;5.10;;;;;;;;;;5054018;28;20407;-71
2021/06/16 00:33:25;;;;;;;7.57;4.97;;;;;;;;;;5054371;28;20056;-71
2021/06/16 00:35:52;;;;;;;10.57;4.65;;;;;;;;;;5052956;28;20128;-71
2021/06/16 00:38:18;;;;;;;5.68;4.38;;;;;;;;;;5054231;28;20408;-71
2021/06/16 00:40:45;;;;;;;7.85;4.45;;;;;;;;;;5053218;28;20382;-71
2021/06/16 00:43:11;;;;;;;10.48;5.38;;;;;;;;;;5052549;28;20063;-71
2021/06/16 00:45:37;;;;;;;8.23;4.90;;;;;;;;;;5054074;28;20017;-71
2021/06/16 00:48:04;;;;;;;7.40;4.80;;;;;;;;;;5054042;28;20044;-71
2021/06/16 00:50:31;;;;;;;10.30;5.03;;;;;;;;;;5053605;28;20093;-70
2021/06/16 00:52:58;;;;;;;9.15;4.68;;;;;;;;;;5052656;28;20408;-70
2021/06/16 00:55:24;;;;;;;11.70;5.35;;;;;;;;;;5053915;28;20036;-72
2021/06/16 00:57:51;;;;;;;8.90;4.72;;;;;;;;;;5053876;28;20143;-72
2021/06/16 01:00:19;;;;;;;6.30;4.80;;;;;;;;;;5053865;28;20040;-72
2021/06/16 01:03:02;;;;;;;6.60;4.78;;;;;;;;;;5053806;28;20071;-72
2021/06/16 01:05:34;;;;;;;7.82;5.03;;;;;;;;;;5053740;28;20014;-71
2021/06/16 01:08:02;;;;;;;13.05;5.20;;;;;;;;;;5052443;28;20017;-71
2021/06/16 01:10:29;;;;;;;13.25;5.90;;;;;;;;;;5052314;28;20359;-71
2021/06/16 01:13:18;;;;;;;8.32;4.55;;;;;;;;;;5053303;28;20535;-72
2021/06/16 01:16:08;;;;;;;12.80;5.07;;;;;;;;;;5053884;28;20496;-72
2021/06/16 01:18:37;;;;;;;8.80;4.65;;;;;;;;;;5042928;28;20087;-70
2021/06/16 01:21:06;;;;;;;8.70;4.47;;;;;;;;;;5053475;28;20021;-69
2021/06/16 01:23:36;;;;;;;6.78;4.68;;;;;;;;;;5053662;28;20029;-71
2021/06/16 01:26:02;;;;;;;5.82;5.22;;;;;;;;;;5053290;28;20110;-72
2021/06/16 01:28:31;;;;;;;7.97;5.13;;;;;;;;;;5052035;28;20029;-72
2021/06/16 01:30:58;;;;;;;8.20;5.18;;;;;;;;;;5053155;28;20069;-72
2021/06/16 01:33:24;;;;;;;9.18;5.10;;;;;;;;;;5053622;28;20085;-72
2021/06/16 01:35:52;;;;;;;7.88;4.55;;;;;;;;;;5051845;28;20025;-71
2021/06/16 01:38:19;;;;;;;10.23;5.88;;;;;;;;;;5053236;28;20038;-72
2021/06/16 01:40:47;;;;;;;8.27;5.22;;;;;;;;;;5051561;28;20120;-72
2021/06/16 01:43:13;;;;;;;7.18;4.45;;;;;;;;;;5053137;28;20413;-72
2021/06/16 01:45:41;;;;;;;9.57;4.78;;;;;;;;;;5051749;28;20025;-72
2021/06/16 01:48:09;;;;;;;10.23;5.28;;;;;;;;;;5053040;28;20021;-72
2021/06/16 01:50:36;;;;;;;8.65;5.45;;;;;;;;;;5051655;28;20037;-72
2021/06/16 01:53:03;;;;;;;6.88;4.85;;;;;;;;;;5051637;28;20366;-71
2021/06/16 01:55:29;;;;;;;13.48;4.85;;;;;;;;;;5052987;28;20028;-71
2021/06/16 01:57:57;;;;;;;8.75;4.88;;;;;;;;;;5052694;28;20529;-71
2021/06/16 02:00:24;;;;;;;7.47;4.50;;;;;;;;;;5052924;28;20484;-71
2021/06/16 02:02:50;;;;;;;8.45;4.32;;;;;;;;;;5052904;28;20029;-71
2021/06/16 02:05:19;;;;;;;9.38;4.85;;;;;;;;;;5052941;28;20092;-73
2021/06/16 02:07:51;;;;;;;4.60;4.03;;;;;;;;;;5051538;28;20025;-73
2021/06/16 02:10:19;;;;;;;13.18;5.00;;;;;;;;;;5051474;28;20028;-71
2021/06/16 02:12:46;;;;;;;8.35;4.85;;;;;;;;;;5052817;28;20025;-74
2021/06/16 02:15:17;;;;;;;8.35;4.60;;;;;;;;;;5052750;28;20485;-73
2021/06/16 02:17:49;;;;;;;8.82;5.07;;;;;;;;;;5052855;28;20053;-72
2021/06/16 02:20:15;;;;;;;;;;;;;;;;;;5051920;28;20029;-71
2021/06/16 02:22:41;;;;;;;11.45;4.18;;;;;;;;;;5052730;28;19905;-71
2021/06/16 02:25:07;;;;;;;10.35;5.32;;;;;;;;;;5052427;28;20036;-73
2021/06/16 02:27:34;;;;;;;8.40;4.85;;;;;;;;;;5051432;28;20124;-71
2021/06/16 02:30:00;;;;;;;8.60;5.10;;;;;;;;;;5051296;28;20373;-71
2021/06/16 02:32:26;;;;;;;9.88;5.05;;;;;;;;;;5052331;28;20021;-72
2021/06/16 02:34:52;;;;;;;11.63;4.97;;;;;;;;;;5052561;28;20032;-71
2021/06/16 02:37:19;;;;;;;13.90;5.10;;;;;;;;;;5052571;28;20063;-71
2021/06/16 02:39:50;;;;;;;10.30;4.72;;;;;;;;;;5052488;28;20428;-73
2021/06/16 02:42:16;;;;;;;11.53;5.13;;;;;;;;;;5051281;28;20354;-72
2021/06/16 02:44:46;;;;;;;8.80;5.05;;;;;;;;;;5052555;28;20035;-71
2021/06/16 02:47:13;;;;;;;10.13;6.22;;;;;;;;;;5052463;28;20036;-73
2021/06/16 02:49:41;;;;;;;5.80;4.15;;;;;;;;;;5051122;28;20029;-71
2021/06/16 02:52:10;;;;;;;7.95;5.45;;;;;;;;;;5052682;28;20052;-72
2021/06/16 02:54:36;;;;;;;6.75;4.75;;;;;;;;;;5052381;28;20021;-72
2021/06/16 02:57:03;;;;;;;8.18;5.53;;;;;;;;;;5052441;28;20055;-72
2021/06/16 02:59:30;;;;;;;8.38;5.55;;;;;;;;;;5052396;28;20056;-72
2021/06/16 03:01:57;;;;;;;11.68;5.28;;;;;;;;;;5052557;28;20043;-73
2021/06/16 03:04:24;;;;;;;7.75;5.30;;;;;;;;;;5055309;28;20025;-71
2021/06/16 03:06:52;;;;;;;11.70;5.65;;;;;;;;;;5056044;28;20025;-71
2021/06/16 03:09:18;;;;;;;7.78;5.07;;;;;;;;;;5055939;28;20021;-72
2021/06/16 03:11:45;;;;;;;10.18;5.40;;;;;;;;;;5054515;28;20036;-71
2021/06/16 03:14:12;;;;;;;13.27;5.35;;;;;;;;;;5055930;28;20543;-73
2021/06/16 03:16:38;;;;;;;7.90;4.95;;;;;;;;;;5054442;28;20078;-72
2021/06/16 03:19:05;;;;;;;11.05;5.65;;;;;;;;;;5055680;28;20354;-71
2021/06/16 03:21:34;;;;;;;12.35;6.03;;;;;;;;;;5054448;28;20063;-71
2021/06/16 03:24:00;;;;;;;12.93;5.78;;;;;;;;;;5055674;28;20025;-71
2021/06/16 03:26:27;;;;;;;11.27;6.95;;;;;;;;;;5055220;28;20398;-71
2021/06/16 03:28:54;;;;;;;8.82;5.47;;;;;;;;;;5054304;28;20433;-71
2021/06/16 03:31:21;;;;;;;10.93;5.28;;;;;;;;;;5055540;28;20032;-70
2021/06/16 03:33:48;;;;;;;8.82;5.15;;;;;;;;;;5037810;28;20336;-71
2021/06/16 03:36:16;;;;;;;9.00;5.57;;;;;;;;;;5055507;28;20461;-71
2021/06/16 03:38:43;;;;;;;8.02;5.38;;;;;;;;;;5054071;28;20142;-71
2021/06/16 03:41:09;;;;;;;10.55;5.82;;;;;;;;;;5055323;28;20025;-71
2021/06/16 03:43:36;;;;;;;9.35;5.15;;;;;;;;;;5055242;28;20118;-71
2021/06/16 03:46:09;;;;;;;8.35;5.30;;;;;;;;;;5054031;28;20035;-71
2021/06/16 03:48:35;;;;;;;8.27;5.45;;;;;;;;;;5054947;28;20592;-71
2021/06/16 03:51:03;;;;;;;8.18;5.40;;;;;;;;;;5053798;28;20377;-71
2021/06/16 03:53:29;;;;;;;8.55;5.28;;;;;;;;;;5055160;28;20017;-71
2021/06/16 03:55:57;;;;;;;9.95;5.80;;;;;;;;;;5054708;28;20424;-71
2021/06/16 03:58:23;;;;;;;14.45;5.82;;;;;;;;;;5053713;28;20036;-72
2021/06/16 04:00:50;;;;;;;8.70;5.30;;;;;;;;;;5055028;28;20033;-70
2021/06/16 04:03:16;;;;;;;10.57;5.72;;;;;;;;;;5053593;28;20059;-71
2021/06/16 04:05:43;;;;;;;9.73;5.82;;;;;;;;;;5054951;28;20033;-69
2021/06/16 04:08:10;;;;;;;9.90;5.38;;;;;;;;;;5054805;28;20021;-73
2021/06/16 04:10:37;;;;;;;6.70;5.15;;;;;;;;;;5054735;28;20067;-72
2021/06/16 04:13:03;;;;;;;10.25;5.50;;;;;;;;;;5053395;28;20115;-71
2021/06/16 04:15:30;;;;;;;14.20;5.68;;;;;;;;;;5053389;28;20017;-71
2021/06/16 04:17:59;;;;;;;10.88;5.38;;;;;;;;;;5053384;28;20113;-71
2021/06/16 04:20:25;;;;;;;7.72;5.53;;;;;;;;;;5053286;28;20024;-70
2021/06/16 04:22:52;;;;;;;13.30;7.13;;;;;;;;;;5054581;28;20021;-71
2021/06/16 04:25:18;;;;;;;10.65;5.22;;;;;;;;;;5054283;28;20080;-70
2021/06/16 04:27:44;;;;;;;10.38;5.50;;;;;;;;;;5054512;28;20036;-70
2021/06/16 04:30:12;;;;;;;10.27;5.60;;;;;;;;;;5054354;28;20462;-71
2021/06/16 04:32:39;;;;;;;9.38;5.15;;;;;;;;;;5052503;28;20021;-70
2021/06/16 04:35:09;;;;;;;9.05;5.80;;;;;;;;;;5053063;28;20025;-69
2021/06/16 04:37:36;;;;;;;9.13;5.65;;;;;;;;;;5054280;28;20104;-69
2021/06/16 04:40:03;;;;;;;10.07;5.93;;;;;;;;;;5054221;28;20104;-69
2021/06/16 04:42:30;;;;;;;9.65;5.35;;;;;;;;;;5054486;28;20206;-71
2021/06/16 04:44:56;;;;;;;8.55;5.10;;;;;;;;;;5053833;28;20017;-69
2021/06/16 04:47:22;;;;;;;12.38;5.50;;;;;;;;;;5052784;28;20128;-71
2021/06/16 04:49:48;;;;;;;7.65;4.95;;;;;;;;;;5054234;28;20025;-71
2021/06/16 04:52:15;;;;;;;7.22;5.10;;;;;;;;;;5052686;28;20044;-69
2021/06/16 04:54:41;;;;;;;11.93;4.90;;;;;;;;;;5053941;28;20020;-69
2021/06/16 04:57:08;;;;;;;8.85;5.15;;;;;;;;;;5053921;28;20059;-68
2021/06/16 04:59:34;;;;;;;8.13;4.70;;;;;;;;;;5052505;28;20021;-72
2021/06/16 05:02:01;;;;;;;10.13;4.88;;;;;;;;;;5053767;28;20021;-70
2021/06/16 05:04:28;;;;;;;8.90;4.80;;;;;;;;;;5052397;28;20100;-69
2021/06/16 05:06:54;;;;;;;9.35;4.57;;;;;;;;;;5053972;28;20025;-69
2021/06/16 05:09:20;;;;;;;8.68;4.97;;;;;;;;;;5053697;28;20017;-71
2021/06/16 05:11:46;;;;;;;8.40;5.32;;;;;;;;;;5053225;28;20382;-71
2021/06/16 05:14:13;;;;;;;11.73;6.05;;;;;;;;;;5052239;28;20482;-71
2021/06/16 05:16:39;;;;;;;10.15;5.57;;;;;;;;;;5052182;28;20025;-72
2021/06/16 05:19:12;;;;;;;11.18;5.88;;;;;;;;;;5052252;28;20378;-70
2021/06/16 05:21:38;;;;;;;10.77;5.40;;;;;;;;;;5052213;28;20032;-70
2021/06/16 05:24:04;;;;;;;8.10;5.25;;;;;;;;;;5053345;28;20017;-70
2021/06/16 05:26:30;;;;;;;9.05;6.00;;;;;;;;;;5053124;28;20064;-71
2021/06/16 05:28:57;;;;;;;8.02;5.47;;;;;;;;;;5053340;28;20029;-71
2021/06/16 05:31:23;;;;;;;9.85;5.97;;;;;;;;;;5052897;28;20051;-71
2021/06/16 05:33:49;;;;;;;11.32;7.00;;;;;;;;;;5053579;28;20497;-71
2021/06/16 05:36:16;;;;;;;23.52;7.88;;;;;;;;;;5051935;28;20123;-70
2021/06/16 05:38:42;;;;;;;12.00;7.10;;;;;;;;;;5051786;28;20086;-70
2021/06/16 05:41:08;;;;;;;14.25;6.63;;;;;;;;;;5053193;28;20021;-71
2021/06/16 05:43:34;;;;;;;17.58;7.10;;;;;;;;;;5052688;28;20020;-71
2021/06/16 05:46:01;;;;;;;11.32;6.65;;;;;;;;;;5053070;28;20029;-70
2021/06/16 05:48:28;;;;;;;11.60;6.25;;;;;;;;;;5051662;28;20503;-70
2021/06/16 05:50:55;;;;;;;10.40;6.03;;;;;;;;;;5052987;28;20085;-68
2021/06/16 05:53:21;;;;;;;10.88;5.68;;;;;;;;;;5052820;28;20017;-68
2021/06/16 05:55:47;;;;;;;10.85;5.65;;;;;;;;;;5051709;28;20029;-69
2021/06/16 05:58:13;;;;;;;10.63;5.72;;;;;;;;;;5052883;28;20060;-69
2021/06/16 06:00:39;;;;;;;8.82;5.40;;;;;;;;;;5052592;28;20037;-69
2021/06/16 06:03:06;;;;;;;12.82;5.72;;;;;;;;;;5052761;28;20055;-69
2021/06/16 06:05:32;;;;;;;9.85;5.35;;;;;;;;;;5052859;28;20405;-69
2021/06/16 06:07:58;;;;;;;11.98;5.57;;;;;;;;;;5052887;28;20056;-69
2021/06/16 06:10:25;;;;;;;8.25;5.45;;;;;;;;;;5051417;28;20503;-68
2021/06/16 06:12:51;;;;;;;11.90;5.30;;;;;;;;;;5052808;28;20033;-69
2021/06/16 06:15:17;;;;;;;13.30;5.63;;;;;;;;;;5052881;28;20088;-70
2021/06/16 06:17:44;;;;;;;8.45;5.20;;;;;;;;;;5051437;28;20375;-70
2021/06/16 06:20:11;;;;;;;10.05;5.00;;;;;;;;;;5051464;28;20051;-69
2021/06/16 06:22:37;;;;;;;9.48;4.50;;;;;;;;;;5051353;28;20117;-69
2021/06/16 06:25:04;;;;;;;9.23;4.72;;;;;;;;;;5050836;28;20103;-69
2021/06/16 06:27:30;;;;;;;11.80;4.60;;;;;;;;;;5052736;28;20032;-69
2021/06/16 06:29:56;;;;;;;11.00;5.07;;;;;;;;;;5052500;28;20063;-69
2021/06/16 06:32:23;;;;;;;8.60;4.45;;;;;;;;;;5052534;28;20060;-69
2021/06/16 06:34:49;;;;;;;8.75;4.63;;;;;;;;;;5051936;28;20446;-69
2021/06/16 06:37:15;;;;;;;8.48;5.28;;;;;;;;;;5052113;28;20049;-69
2021/06/16 09:02:13;;;;;;;7.78;2.45;;;;;;;;;;5265698;23;20076;-64
2021/06/16 09:04:50;;;;;;;5.57;2.85;;;;;;;;;;5014150;28;20034;-66
2021/06/16 09:07:18;;;;;;;5.43;3.03;;;;;;;;;;5014139;28;20030;-66
2021/06/16 09:09:44;;;;;;;5.07;2.60;;;;;;;;;;5013992;28;20029;-67
2021/06/16 09:12:13;;;;;;;6.97;2.90;;;;;;;;;;5011803;28;20363;-68
2021/06/16 09:14:56;;;;;;;4.55;2.92;;;;;;;;;;5014097;28;20057;-69
2021/06/16 09:17:22;;;;;;;4.55;3.00;;;;;;;;;;5013725;28;20787;-69
2021/06/16 09:19:56;;;;;;;6.40;2.38;;;;;;;;;;5013892;28;20026;-69
2021/06/16 09:22:33;;;;;;;7.75;2.45;;;;;;;;;;5012679;28;20103;-66
2021/06/16 09:25:02;;;;;;;4.35;2.40;;;;;;;;;;5032103;28;20369;-68
2021/06/16 09:27:38;;;;;;;8.25;2.55;;;;;;;;;;5033560;28;20547;-69
2021/06/16 09:30:25;;;;;;;7.03;3.05;;;;;;;;;;5032988;28;20440;-71
2021/06/16 09:32:56;;;;;;;4.70;2.35;;;;;;;;;;5032977;28;20543;-68
2021/06/16 09:35:27;;;;;;;5.15;2.38;;;;;;;;;;5033243;28;20032;-69
2021/06/16 09:37:54;;;;;;;6.85;2.13;;;;;;;;;;5048571;28;20017;-69
2021/06/16 09:40:26;;;;;;;3.67;2.47;;;;;;;;;;5033298;28;20044;-69
2021/06/16 09:43:00;;;;;;;9.13;3.08;;;;;;;;;;5026134;28;20022;-69
2021/06/16 09:45:26;;;;;;;4.75;2.40;;;;;;;;;;5012657;28;20484;-70
2021/06/16 09:47:52;;;;;;;3.67;2.20;;;;;;;;;;5012910;28;20022;-69
2021/06/16 09:50:37;;;;;;;2.85;2.00;;;;;;;;;;5012843;28;20467;-70
2021/06/16 09:53:06;;;;;;;5.47;2.22;;;;;;;;;;5028194;28;20092;-69
2021/06/16 09:55:33;;;;;;;4.03;2.10;;;;;;;;;;5028508;28;20432;-69
2021/06/16 09:58:17;;;;;;;5.40;2.60;;;;;;;;;;5013711;28;20365;-69
2021/06/16 10:00:48;;;;;;;3.63;2.42;;;;;;;;;;5013368;28;20025;-70
2021/06/16 10:03:15;;;;;;;7.13;2.80;;;;;;;;;;5012668;28;20518;-70
2021/06/16 10:06:00;;;;;;;7.93;2.53;;;;;;;;;;5013353;28;20077;-70
2021/06/16 10:08:26;;;;;;;3.58;2.40;;;;;;;;;;5028362;28;20430;-70
2021/06/16 10:10:52;;;;;;;6.97;2.30;;;;;;;;;;5013253;28;20030;-67
2021/06/16 10:13:21;;;;;;;2.53;2.33;;;;;;;;;;5014686;28;20105;-68
2021/06/16 10:15:47;;;;;;;4.18;2.55;;;;;;;;;;5017087;28;20033;-68
2021/06/16 10:18:18;;;;;;;9.98;3.15;;;;;;;;;;5017151;28;20105;-68
2021/06/16 10:20:45;;;;;;;2.85;2.55;;;;;;;;;;5031525;28;20026;-67
2021/06/16 10:23:12;;;;;;;4.47;2.25;;;;;;;;;;5015716;28;20109;-67
2021/06/16 10:25:38;;;;;;;4.13;2.08;;;;;;;;;;5016636;28;20061;-66
2021/06/16 10:28:04;;;;;;;3.90;2.30;;;;;;;;;;5032007;28;20084;-68
2021/06/16 10:30:43;;;;;;;3.97;2.92;;;;;;;;;;5016702;28;20029;-67
2021/06/16 10:33:29;;;;;;;4.15;2.60;;;;;;;;;;5016841;28;20029;-70
2021/06/16 10:36:11;;;;;;;5.78;2.08;;;;;;;;;;5016629;28;20025;-70
2021/06/16 10:38:37;;;;;;;4.70;2.60;;;;;;;;;;5015901;28;20100;-69
2021/06/16 10:41:04;;;;;;;2.83;2.17;;;;;;;;;;5015697;28;20165;-69
2021/06/16 10:43:41;;;;;;;2.30;2.08;;;;;;;;;;5015590;28;20065;-70
2021/06/16 10:46:20;;;;;;;6.05;2.60;;;;;;;;;;5015330;28;20029;-69
2021/06/16 10:48:56;;;;;;;4.25;2.08;;;;;;;;;;5030554;28;20378;-71
2021/06/16 10:51:29;;;;;;;2.45;1.73;;;;;;;;;;5014860;28;20493;-68
2021/06/16 10:54:13;;;;;;;5.13;2.05;;;;;;;;;;5031354;28;20104;-68
2021/06/16 10:56:44;;;;;;;3.92;2.25;;;;;;;;;;5016531;28;20022;-67
2021/06/16 10:59:10;;;;;;;3.38;2.28;;;;;;;;;;5016330;28;20014;-68
2021/06/16 11:01:51;;;;;;;4.35;2.05;;;;;;;;;;5016002;28;20050;-69
2021/06/16 11:04:17;;;;;;;;;;;;;;;;;;5016731;28;20037;-71
2021/06/16 11:06:43;;;;;;;6.30;2.00;;;;;;;;;;5016534;28;19906;-68
2021/06/16 11:09:16;;;;;;;7.82;2.22;;;;;;;;;;5016417;28;20034;-71
2021/06/16 11:12:11;;;;;;;2.88;2.20;;;;;;;;;;5016117;28;20026;-70
2021/06/16 11:14:39;;;;;;;4.38;2.00;;;;;;;;;;5016124;28;20037;-73
2021/06/16 11:17:06;;;;;;;4.95;2.83;;;;;;;;;;5015960;28;20056;-66
2021/06/16 11:19:35;;;;;;;2.67;2.33;;;;;;;;;;5016086;28;20478;-69
2021/06/16 11:22:14;;;;;;;3.05;2.03;;;;;;;;;;5015973;28;20033;-67
2021/06/16 11:24:59;;;;;;;4.00;1.98;;;;;;;;;;5015871;28;20028;-67
2021/06/16 11:27:43;;;;;;;5.03;1.83;;;;;;;;;;5030814;28;20050;-67
2021/06/16 11:30:14;;;;;;;2.38;1.77;;;;;;;;;;5015854;28;20100;-67
2021/06/16 11:32:40;;;;;;;3.23;2.00;;;;;;;;;;5015621;28;20505;-69
2021/06/16 11:35:06;;;;;;;2.17;1.85;;;;;;;;;;5015759;28;20286;-68
2021/06/16 11:37:51;;;;;;;3.28;2.08;;;;;;;;;;5016030;28;20033;-67
2021/06/16 11:40:18;;;;;;;2.90;1.83;;;;;;;;;;5015694;28;20096;-66
2021/06/16 11:42:45;;;;;;;8.57;2.15;;;;;;;;;;5015817;28;20026;-69
2021/06/16 11:45:11;;;;;;;2.60;1.98;;;;;;;;;;5030755;28;20053;-68
2021/06/16 11:47:37;;;;;;;2.17;1.58;;;;;;;;;;5015611;28;20100;-71
2021/06/16 11:50:04;;;;;;;2.13;1.40;;;;;;;;;;5015047;28;20075;-73
2021/06/16 11:52:30;;;;;;;4.28;1.90;;;;;;;;;;5015429;28;20390;-71
2021/06/16 11:54:56;;;;;;;4.35;2.22;;;;;;;;;;5030565;28;20109;-70
2021/06/16 11:57:27;;;;;;;6.03;2.00;;;;;;;;;;5030522;28;20105;-71
2021/06/16 11:59:54;;;;;;;1.80;1.60;;;;;;;;;;5015396;28;20075;-71
2021/06/16 12:02:23;;;;;;;4.25;1.88;;;;;;;;;;5014963;28;20056;-72
2021/06/16 12:04:52;;;;;;;1.90;1.73;;;;;;;;;;5030429;28;20028;-72
2021/06/16 12:07:48;;;;;;;2.83;1.60;;;;;;;;;;5024287;28;20031;-72
2021/06/16 12:10:15;;;;;;;5.15;1.85;;;;;;;;;;5029437;28;20037;-70
2021/06/16 12:12:47;;;;;;;4.03;1.90;;;;;;;;;;5050126;28;20512;-72
2021/06/16 12:15:15;;;;;;;3.22;1.65;;;;;;;;;;5034864;28;20037;-72
2021/06/16 12:17:58;;;;;;;3.85;1.70;;;;;;;;;;5034783;28;20122;-71
2021/06/16 12:20:25;;;;;;;2.20;1.88;;;;;;;;;;5050040;28;20540;-71
2021/06/16 12:22:51;;;;;;;2.70;1.65;;;;;;;;;;5034174;28;20112;-71
2021/06/16 12:25:24;;;;;;;4.72;1.65;;;;;;;;;;5023202;28;20037;-72
2021/06/16 12:27:50;;;;;;;3.30;1.83;;;;;;;;;;5018456;28;20104;-73
2021/06/16 12:30:20;;;;;;;2.05;1.50;;;;;;;;;;5013254;28;20029;-71
2021/06/16 12:33:11;;;;;;;1.60;1.50;;;;;;;;;;5013369;28;20026;-71
2021/06/16 12:35:42;;;;;;;2.15;1.65;;;;;;;;;;5013410;28;20048;-71
2021/06/16 12:38:09;;;;;;;2.45;2.17;;;;;;;;;;5014702;28;20107;-71
2021/06/16 12:40:37;;;;;;;1.85;1.70;;;;;;;;;;5013050;28;20030;-71
2021/06/16 12:43:03;;;;;;;4.75;2.38;;;;;;;;;;5014332;28;20108;-71
2021/06/16 12:45:38;;;;;;;4.47;1.70;;;;;;;;;;5014588;28;20166;-71
2021/06/16 12:48:16;;;;;;;3.03;2.08;;;;;;;;;;5014539;28;20084;-71
2021/06/16 12:50:50;;;;;;;3.70;1.70;;;;;;;;;;5014397;28;20035;-70
2021/06/16 12:53:17;;;;;;;1.75;1.55;;;;;;;;;;5013176;28;20139;-70
2021/06/16 12:55:54;;;;;;;2.80;1.98;;;;;;;;;;5014079;28;20037;-71
2021/06/16 12:58:22;;;;;;;2.05;1.63;;;;;;;;;;5014361;28;20072;-70
2021/06/16 13:00:49;;;;;;;2.70;1.70;;;;;;;;;;5014272;28;20031;-71
2021/06/16 13:03:25;;;;;;;2.08;1.88;;;42.60;41.30;;;;;;5014295;28;20056;-71
2021/06/16 13:06:02;;;;;;;2.42;1.77;;;42.80;53.00;;;;;;5014237;28;20033;-71
2021/06/16 13:08:35;;;;;;;2.70;1.70;;;42.90;61.50;;;;;;5013950;28;20112;-71
2021/06/16 13:11:17;;;;;;;8.15;2.42;;;;;;;;;;5013955;28;20038;-71
2021/06/16 13:13:43;;;;;;;4.63;2.10;;;;;;;;;;5013849;28;20022;-71
2021/06/16 13:16:25;;;;;;;1.88;1.70;;;43.20;78.50;;;;;;5012665;28;20026;-71
2021/06/16 13:18:52;;;;;;;2.17;1.98;;;43.50;41.90;;;;;;5014051;28;20041;-72
2021/06/16 13:21:18;;;;;;;2.00;1.75;;;44.00;41.60;;;;;;5013919;28;20030;-71
2021/06/16 13:23:53;;;;;;;4.35;1.83;;;44.10;40.60;;;;;;5012477;28;20034;-71
2021/06/16 13:26:19;;;;;;;2.22;1.98;;;43.80;40.30;;;;;;5012454;28;20113;-70
2021/06/16 13:28:56;;;;;;;7.03;2.47;;;44.00;40.90;;;;;;5013810;28;20030;-71
2021/06/16 13:31:23;;;;;;;2.83;1.83;;;45.10;40.00;;;;;;5013692;28;20032;-71
2021/06/16 13:33:51;;;;;;;6.30;1.90;;;44.70;39.10;;;;;;5013623;28;20526;-72
2021/06/16 13:36:19;;;;;;;2.58;1.70;;;43.80;39.80;;;;;;5013737;28;20116;-71
2021/06/16 13:38:50;;;;;;;3.58;2.30;;;43.40;43.60;;;;;;5013406;28;20026;-72
2021/06/16 13:41:18;;;;;;;2.15;1.95;;;44.30;39.40;;;;;;5013710;28;20030;-72
2021/06/16 13:43:44;;;;;;;2.05;1.55;;;43.80;40.10;;;;;;5013581;28;20496;-72
2021/06/16 13:46:11;;;;;;;3.03;1.73;;;43.00;36.90;;;;;;5013459;28;20063;-72
2021/06/16 13:48:37;;;;;;;4.65;1.90;;;;;;;;;;5013747;28;20022;-71
2021/06/16 13:51:04;;;;;;;2.08;1.88;;;;;;;;;;5013162;28;20501;-71
2021/06/16 13:53:30;;;;;;;2.15;1.88;;;;;;;;;;5013169;28;20601;-71
2021/06/16 13:55:58;;;;;;;2.97;1.83;;;;;;;;;;5013385;28;20025;-72
2021/06/16 13:58:25;;;;;;;2.15;1.88;;;;;;;;;;5012081;28;20029;-72
2021/06/16 14:00:51;;;;;;;6.10;1.77;;;;;;;;;;5011939;28;20474;-73
2021/06/16 14:03:17;;;;;;;3.03;1.50;;;;;;;;;;5012765;28;20054;-72
2021/06/16 14:05:43;;;;;;;2.97;2.10;;;;;;;;;;5013215;28;20087;-72
2021/06/16 14:08:11;;;;;;;2.03;1.50;;;42.10;78.30;;;;;;5013564;28;20053;-72
2021/06/16 14:10:37;;;;;;;5.00;1.90;;;;;;;;;;5013017;28;20033;-71
2021/06/16 14:13:04;;;;;;;2.58;1.90;;;;;;;;;;5013149;28;20030;-70
2021/06/16 14:15:31;;;;;;;1.77;1.60;;;;;;;;;;5013146;28;20050;-71
2021/06/16 14:17:57;;;;;;;1.98;1.83;;;;;;;;;;5011916;28;20108;-71
2021/06/16 14:20:23;;;;;;;3.60;1.85;;;;;;;;;;5013158;28;20370;-71
2021/06/16 14:22:50;;;;;;;1.88;1.58;;;;;;;;;;5013141;28;20026;-71
2021/06/16 14:25:17;;;;;;;2.72;1.73;;;;;;;;;;5013186;28;20034;-71
2021/06/16 14:27:43;;;;;;;1.63;1.52;;;42.40;75.70;;;;;;5011888;28;20014;-71
2021/06/16 14:30:12;;;;;;;1.70;1.60;;;39.20;78.10;;;;;;5013001;28;20026;-72
2021/06/16 14:32:38;;;;;;;4.00;1.98;;;;;;;;;;5013101;28;20029;-72
2021/06/16 14:35:06;;;;;;;3.72;2.15;;;;;;;;;;5013061;28;20363;-72
2021/06/16 14:37:32;;;;;;;4.68;2.28;;;;;;;;;;5013022;28;20454;-72
2021/06/16 14:39:59;;;;;;;3.10;1.77;;;;;;;;;;5013085;28;20022;-72
2021/06/16 14:42:26;;;;;;;3.30;1.85;;;;;;;;;;5012912;28;20029;-72
2021/06/16 14:44:53;;;;;;;8.07;2.17;;;;;;;;;;5012910;28;20026;-71
2021/06/16 14:47:20;;;;;;;4.15;1.80;;;;;;;;;;5012969;28;20022;-71
2021/06/16 14:49:47;;;;;;;3.22;1.88;;;42.50;38.80;;;;;;5012912;28;20112;-71
2021/06/16 14:52:14;;;;;;;2.47;2.03;;;;;;;;;;5012828;28;20034;-71
2021/06/16 14:54:41;;;;;;;1.80;1.65;;;40.10;38.10;;;;;;5012927;28;20036;-72
2021/06/16 14:57:07;;;;;;;2.72;1.85;;;;;;;;;;5012802;28;20080;-71
2021/06/16 14:59:33;;;;;;;2.40;2.20;;;;;;;;;;5014886;28;20018;-71
2021/06/16 15:01:59;;;;;;;5.10;2.10;;;;;;;;;;5014900;28;20141;-72
2021/06/16 15:04:27;;;;;;;1.88;1.73;;;;;;;;;;5016452;28;20025;-71
2021/06/16 15:06:53;;;;;;;1.90;1.77;;;;;;;;;;5016476;28;20032;-71
2021/06/16 15:09:19;;;;;;;1.80;1.70;;;42.00;39.00;;;;;;5016419;28;20115;-72
2021/06/16 15:11:47;;;;;;;1.92;1.67;;;41.90;40.40;;;;;;5016241;28;20025;-71
2021/06/16 15:14:13;;;;;;;4.30;2.00;;;;;;;;;;5016208;28;20080;-71
2021/06/16 15:16:40;;;;;;;2.35;2.05;;;;;;;;;;5016195;28;20446;-71
2021/06/16 15:19:06;;;;;;;2.95;1.98;;;;;;;;;;5016217;28;20037;-71
2021/06/16 15:21:32;;;;;;;2.25;2.05;;;;;;;;;;5016109;28;20053;-71
2021/06/16 15:23:58;;;;;;;2.83;1.70;;;;;;;;;;5014771;28;20109;-71
2021/06/16 15:26:28;;;;;;;2.95;1.73;;;;;;;;;;5015964;28;20121;-71
2021/06/16 15:28:54;;;;;;;2.10;1.90;;;;;;;;;;5016100;28;20026;-71
2021/06/16 15:31:21;;;;;;;2.47;1.50;;;;;;;;;;5015618;28;20037;-71
2021/06/16 15:33:47;;;;;;;2.47;1.60;;;;;;;;;;5015900;28;20115;-71
2021/06/16 15:36:13;;;;;;;2.90;1.88;;;;;;;;;;5015596;28;20117;-71
2021/06/16 15:38:40;;;;;;;3.60;1.60;;;;;;;;;;5015626;28;20058;-71
2021/06/16 15:41:14;;;;;;;1.90;1.80;;;;;;;;;;5015778;28;20076;-71
2021/06/16 15:43:40;;;;;;;4.28;1.90;;;;;;;;;;5014395;28;20025;-71
2021/06/16 15:46:07;;;;;;;1.90;1.80;;;;;;;;;;5015340;28;20427;-71
2021/06/16 15:48:33;;;;;;;4.43;1.88;;;38.90;39.60;;;;;;5014377;28;20029;-71
2021/06/16 15:51:00;;;;;;;2.58;2.15;;;;;;;;;;5015705;28;20026;-70
2021/06/16 15:53:26;;;;;;;1.98;1.52;;;;;;;;;;5015409;28;20481;-71
2021/06/16 15:55:56;;;;;;;2.95;2.70;;;;;;;;;;5015169;28;20083;-70
2021/06/16 15:58:29;;;;;;;2.47;1.70;;;;;;;;;;5015355;28;20489;-71
2021/06/16 16:00:56;;;;;;;3.22;2.17;;;;;;;;;;5015345;28;20034;-70
2021/06/16 16:03:22;;;;;;;2.30;1.90;;;;;;;;;;5014949;28;20046;-71
2021/06/16 16:05:49;;;;;;;2.35;1.95;;;;;;;;;;5015457;28;20113;-71
2021/06/16 16:08:15;;;;;;;4.47;2.10;;;;;;;;;;5014957;28;20356;-71
2021/06/16 16:10:44;;;;;;;2.50;2.03;;;;;;;;;;5013765;28;20458;-71
2021/06/16 16:13:11;;;;;;;4.05;1.85;;;;;;;;;;5015168;28;20037;-71
2021/06/16 16:15:38;;;;;;;2.90;2.20;;;;;;;;;;5015082;28;20021;-72
2021/06/16 16:18:05;;;;;;;4.78;2.33;;;;;;;;;;5015011;28;20402;-71
2021/06/16 16:20:32;;;;;;;3.15;1.80;;;;;;;;;;5014982;28;20492;-70
2021/06/16 16:22:58;;;;;;;2.53;1.73;;;;;;;;;;5014960;28;20432;-70
2021/06/16 16:25:26;;;;;;;2.72;1.98;;;;;;;;;;5013652;28;20355;-71
2021/06/16 16:27:57;;;;;;;2.65;1.80;;;;;;;;;;5013531;28;20466;-71
2021/06/16 16:30:24;;;;;;;3.85;2.30;;;;;;;;;;5013492;28;20032;-71
2021/06/16 16:32:50;;;;;;;2.30;2.10;;;;;;;;;;5014783;28;20062;-71
2021/06/16 16:35:17;;;;;;;5.55;1.60;;;;;;;;;;5014714;28;20032;-71
2021/06/16 16:37:43;;;;;;;5.68;2.20;;;;;;;;;;5014672;28;20105;-72
2021/06/16 16:40:09;;;;;;;2.55;1.90;;;;;;;;;;5014753;28;20089;-71
2021/06/16 16:42:36;;;;;;;5.47;2.25;;;;;;;;;;5014634;28;20474;-71
2021/06/16 16:45:06;;;;;;;11.30;2.10;;;;;;;;;;5014744;28;20023;-72
2021/06/16 16:47:32;;;;;;;4.05;2.00;;;;;;;;;;5013194;28;20022;-71
2021/06/16 16:49:59;;;;;;;5.30;2.13;;;;;;;;;;5013234;28;20034;-71
2021/06/16 16:52:25;;;;;;;3.03;2.00;;;;;;;;;;5014328;28;20034;-72
2021/06/16 16:54:51;;;;;;;2.30;1.77;;;;;;;;;;5012975;28;20037;-71
2021/06/16 16:57:18;;;;;;;4.60;1.95;;;;;;;;;;5014419;28;20033;-71
2021/06/16 16:59:45;;;;;;;4.00;1.60;;;;;;;;;;5014298;28;20053;-71
2021/06/16 17:02:11;;;;;;;2.20;2.00;;;;;;;;;;5013744;28;20530;-72
2021/06/16 17:04:37;;;;;;;2.08;1.30;;;;;;;;;;5014176;28;20038;-72